createdAt,value
2022-10-18T00:00:38.659Z,102214.63
2022-10-18T00:03:05.695Z,102192.25
2022-10-18T00:05:55.276Z,102153.91
2022-10-18T00:08:22.515Z,102196.56
2022-10-18T00:11:02.637Z,102189.28
2022-10-18T00:13:32.143Z,102151.94
2022-10-18T00:16:05.256Z,102210.50
2022-10-18T00:18:35.354Z,102166.72
2022-10-18T00:21:28.774Z,102206.59
2022-10-18T00:24:04.382Z,102215.28
2022-10-18T00:26:43.925Z,102158.94
2022-10-18T00:33:26.326Z,102202.28
2022-10-18T00:36:33.258Z,102199.31
2022-10-18T00:39:09.239Z,102154.69
2022-10-18T00:41:43.874Z,102164.00
2022-10-18T00:45:10.080Z,102199.69
2022-10-18T00:47:12.968Z,102202.22
2022-10-18T00:49:47.613Z,102197.72
2022-10-18T00:52:23.136Z,102204.03
2022-10-18T00:54:55.924Z,102197.66
2022-10-18T00:57:26.339Z,102193.00
2022-10-18T00:59:57.034Z,102194.00
2022-10-18T01:02:25.042Z,102193.56
2022-10-18T01:04:52.539Z,102188.94
2022-10-18T01:07:22.063Z,102199.94
2022-10-18T01:10:00.125Z,102198.50
2022-10-18T01:12:51.441Z,102186.94
2022-10-18T01:15:31.010Z,102190.06
2022-10-18T01:18:01.109Z,102183.56
2022-10-18T01:20:55.939Z,102182.44
2022-10-18T01:23:37.677Z,102185.25
2022-10-18T01:26:39.757Z,102185.97
2022-10-18T01:29:21.576Z,102193.19
2022-10-18T01:31:59.458Z,102189.38
2022-10-18T01:34:34.190Z,102164.34
2022-10-18T01:37:08.742Z,102183.69
2022-10-18T01:39:43.323Z,102156.53
2022-10-18T01:42:30.288Z,102188.59
2022-10-18T01:45:00.663Z,102139.69
2022-10-18T01:47:47.206Z,102137.00
2022-10-18T01:50:31.468Z,102180.03
2022-10-18T01:53:07.293Z,102176.50
2022-10-18T01:55:48.478Z,102174.53
2022-10-18T01:58:26.120Z,102142.75
2022-10-18T02:01:20.843Z,102166.66
2022-10-18T02:03:51.215Z,102141.06
2022-10-18T02:06:28.483Z,102174.97
2022-10-18T02:09:35.879Z,102141.06
2022-10-18T02:12:19.813Z,102167.09
2022-10-18T02:14:48.747Z,102164.03
2022-10-18T02:17:21.681Z,102140.56
2022-10-18T02:20:00.520Z,102151.50
2022-10-18T02:22:35.747Z,102166.41
2022-10-18T02:25:13.181Z,102167.25
2022-10-18T02:27:52.387Z,102171.16
2022-10-18T02:30:42.222Z,102194.28
2022-10-18T02:33:23.085Z,102168.50
2022-10-18T02:36:02.532Z,102152.34
2022-10-18T02:38:32.334Z,102177.66
2022-10-18T02:41:00.217Z,102150.66
2022-10-18T02:43:33.067Z,102135.72
2022-10-18T02:46:00.931Z,102142.47
2022-10-18T02:48:30.507Z,102140.63
2022-10-18T02:51:12.700Z,102175.38
2022-10-18T02:53:42.536Z,102150.34
2022-10-18T02:56:10.412Z,102182.56
2022-10-18T02:58:37.503Z,102158.78
2022-10-18T03:01:04.459Z,102183.56
2022-10-18T03:03:31.280Z,102189.06
2022-10-18T03:06:04.375Z,102180.03
2022-10-18T03:08:33.412Z,102181.03
2022-10-18T03:11:04.956Z,102183.69
2022-10-18T03:13:34.521Z,102170.88
2022-10-18T03:16:02.174Z,102174.97
2022-10-18T03:18:29.433Z,102180.72
2022-10-18T03:21:06.107Z,102135.16
2022-10-18T03:23:33.056Z,102168.19
2022-10-18T03:26:01.511Z,102180.19
2022-10-18T03:28:29.137Z,102175.13
2022-10-18T03:31:06.863Z,102179.91
2022-10-18T03:33:38.707Z,102135.88
2022-10-18T03:36:06.638Z,102135.03
2022-10-18T03:38:33.931Z,102178.50
2022-10-18T03:41:09.156Z,102177.66
2022-10-18T03:43:40.532Z,102145.59
2022-10-18T03:46:07.882Z,102125.03
2022-10-18T03:48:34.934Z,102140.63
2022-10-18T03:51:05.340Z,102115.91
2022-10-18T03:53:32.381Z,102120.56
2022-10-18T03:55:59.736Z,102124.09
2022-10-18T03:58:26.702Z,102155.56
2022-10-18T04:00:56.065Z,102161.06
2022-10-18T04:03:24.049Z,102139.94
2022-10-18T04:05:51.221Z,102139.25
2022-10-18T04:08:21.832Z,102127.59
2022-10-18T04:10:48.681Z,102143.06
2022-10-18T04:13:16.027Z,102144.31
2022-10-18T04:15:52.939Z,102159.66
2022-10-18T04:18:19.645Z,102135.75
2022-10-18T04:20:49.113Z,102147.19
2022-10-18T04:23:15.910Z,102179.97
2022-10-18T04:28:13.559Z,102171.25
2022-10-18T04:30:53.316Z,102176.88
2022-10-18T04:33:21.421Z,102167.00
2022-10-18T04:35:51.178Z,102168.09
2022-10-18T04:38:18.014Z,102165.28
2022-10-18T04:40:44.651Z,102171.31
2022-10-18T04:43:11.332Z,102171.47
2022-10-18T04:45:41.094Z,102174.00
2022-10-18T04:48:08.732Z,102180.66
2022-10-18T04:50:35.417Z,102188.38
2022-10-18T04:53:02.600Z,102183.56
2022-10-18T04:55:29.296Z,102194.28
2022-10-18T04:57:55.992Z,102203.03
2022-10-18T05:00:22.760Z,102200.09
2022-10-18T05:03:21.534Z,102198.50
2022-10-18T05:06:01.204Z,102196.81
2022-10-18T05:08:28.659Z,102191.47
2022-10-18T05:10:58.582Z,102206.41
2022-10-18T05:13:25.579Z,102199.34
2022-10-18T05:15:52.711Z,102200.94
2022-10-18T05:18:25.802Z,102186.47
2022-10-18T05:20:52.529Z,102179.97
2022-10-18T05:23:19.144Z,102187.84
2022-10-18T05:25:46.431Z,102194.50
2022-10-18T05:28:40.487Z,102200.41
2022-10-18T05:31:16.075Z,102148.50
2022-10-18T05:33:45.657Z,102189.59
2022-10-18T05:36:12.492Z,102196.47
2022-10-18T05:38:42.942Z,102184.63
2022-10-18T05:41:10.867Z,102187.00
2022-10-18T05:43:38.155Z,102189.97
2022-10-18T05:46:13.497Z,102183.94
2022-10-18T05:48:49.150Z,102191.13
2022-10-18T05:51:16.807Z,102177.28
2022-10-18T05:53:43.983Z,102172.25
2022-10-18T05:56:12.120Z,102178.75
2022-10-18T05:58:39.578Z,102197.88
2022-10-18T06:01:07.004Z,102209.59
2022-10-18T06:03:34.482Z,102203.13
2022-10-18T06:06:06.039Z,102194.09
2022-10-18T06:08:33.983Z,102201.97
2022-10-18T06:11:00.896Z,102191.00
2022-10-18T06:13:29.092Z,102203.66
2022-10-18T06:15:57.858Z,102206.50
2022-10-18T06:18:24.840Z,102223.97
2022-10-18T06:21:00.541Z,102216.91
2022-10-18T06:23:28.233Z,102208.44
2022-10-18T06:25:59.475Z,102218.59
2022-10-18T06:28:26.865Z,102230.31
2022-10-18T06:30:53.628Z,102228.31
2022-10-18T06:33:20.243Z,102222.56
2022-10-18T06:36:01.350Z,102221.88
2022-10-18T06:38:29.828Z,102233.28
2022-10-18T06:40:58.127Z,102233.53
2022-10-18T06:43:24.926Z,102236.38
2022-10-18T06:45:51.691Z,102240.03
2022-10-18T06:50:58.630Z,102244.16
2022-10-18T06:53:31.196Z,102263.59
2022-10-18T06:56:16.070Z,102268.25
2022-10-18T06:58:42.711Z,102264.44
2022-10-18T07:01:16.124Z,102268.25
2022-10-18T07:03:43.601Z,102274.31
2022-10-18T07:06:12.146Z,102276.44
2022-10-18T07:08:39.790Z,102283.06
2022-10-18T07:11:07.502Z,102286.88
2022-10-18T07:13:34.523Z,102289.69
2022-10-18T07:16:02.423Z,102299.13
2022-10-18T07:18:29.031Z,102298.13
2022-10-18T07:20:55.808Z,102304.06
2022-10-18T07:23:24.160Z,102311.09
2022-10-18T07:25:52.030Z,102317.00
2022-10-18T07:28:18.735Z,102309.97
2022-10-18T07:30:45.711Z,102314.19
2022-10-18T07:33:12.387Z,102310.97
2022-10-18T07:35:38.956Z,102316.75
2022-10-18T07:38:05.763Z,102309.69
2022-10-18T07:40:32.405Z,102314.47
2022-10-18T07:43:01.642Z,102317.56
2022-10-18T07:45:32.343Z,102317.84
2022-10-18T07:47:59.203Z,102322.06
2022-10-18T07:50:25.788Z,102323.47
2022-10-18T07:52:52.458Z,102327.13
2022-10-18T07:55:19.044Z,102325.72
2022-10-18T07:57:45.715Z,102321.59
2022-10-18T08:00:12.804Z,102326.00
2022-10-18T08:02:39.459Z,102332.34
2022-10-18T08:05:06.226Z,102334.03
2022-10-18T08:07:33.899Z,102332.22
2022-10-18T08:10:00.809Z,102341.50
2022-10-18T08:12:27.514Z,102327.53
2022-10-18T08:14:54.246Z,102324.03
2022-10-18T08:17:20.868Z,102323.03
2022-10-18T08:19:58.373Z,102334.75
2022-10-18T08:22:34.147Z,102321.44
2022-10-18T08:25:00.779Z,102328.09
2022-10-18T08:27:27.577Z,102327.91
2022-10-18T08:29:54.266Z,102337.22
2022-10-18T08:32:20.920Z,102336.66
2022-10-18T08:34:47.537Z,102329.31
2022-10-18T08:37:14.198Z,102331.97
2022-10-18T08:39:40.818Z,102334.56
2022-10-18T08:42:22.797Z,102346.22
2022-10-18T08:44:51.711Z,102347.03
2022-10-18T08:47:29.847Z,102350.44
2022-10-18T08:50:01.227Z,102340.44
2022-10-18T08:52:49.784Z,102350.84
2022-10-18T08:55:25.076Z,102348.88
2022-10-18T08:57:52.271Z,102362.97
2022-10-18T09:00:20.399Z,102369.31
2022-10-18T09:03:25.752Z,102353.84
2022-10-18T09:06:04.334Z,102355.91
2022-10-18T09:08:52.146Z,102370.03
2022-10-18T09:11:52.443Z,102357.63
2022-10-18T09:14:40.790Z,102359.88
2022-10-18T09:17:07.337Z,102357.06
2022-10-18T09:20:01.843Z,102356.63
2022-10-18T09:22:52.041Z,102359.19
2022-10-18T09:25:33.590Z,102353.53
2022-10-18T09:28:50.786Z,102352.47
2022-10-18T09:31:20.490Z,102359.50
2022-10-18T09:34:27.608Z,102344.69
2022-10-18T09:36:54.995Z,102341.06
2022-10-18T09:39:34.436Z,102338.19
2022-10-18T09:42:12.052Z,102338.22
2022-10-18T09:44:42.708Z,102335.75
2022-10-18T09:47:38.683Z,102327.88
2022-10-18T09:50:48.540Z,102320.22
2022-10-18T09:53:25.630Z,102311.00
2022-10-18T09:55:57.294Z,102298.66
2022-10-18T09:58:26.146Z,102300.13
2022-10-18T10:00:53.620Z,102303.84
2022-10-18T10:03:20.230Z,102300.56
2022-10-18T10:05:47.041Z,102308.94
2022-10-18T10:08:13.673Z,102291.09
2022-10-18T10:10:45.972Z,102290.59
2022-10-18T10:13:26.226Z,102302.41
2022-10-18T10:15:57.040Z,102297.81
2022-10-18T10:18:27.730Z,102289.78
2022-10-18T10:20:57.563Z,102293.97
2022-10-18T10:23:39.239Z,102301.09
2022-10-18T10:26:25.218Z,102293.44
2022-10-18T10:28:52.297Z,102277.91
2022-10-18T10:31:24.771Z,102284.94
2022-10-18T10:34:04.651Z,102301.56
2022-10-18T10:36:32.847Z,102302.00
2022-10-18T10:39:12.371Z,102292.97
2022-10-18T10:41:41.551Z,102291.00
2022-10-18T10:44:17.358Z,102290.38
2022-10-18T10:46:44.665Z,102289.88
2022-10-18T10:49:41.219Z,102289.84
2022-10-18T10:52:28.593Z,102281.78
2022-10-18T10:55:11.336Z,102286.53
2022-10-18T10:57:47.455Z,102285.00
2022-10-18T11:00:37.724Z,102281.59
2022-10-18T11:03:30.985Z,102285.16
2022-10-18T11:06:01.091Z,102293.28
2022-10-18T11:08:33.716Z,102284.13
2022-10-18T11:11:27.050Z,102292.03
2022-10-18T11:14:31.320Z,102282.91
2022-10-18T11:17:16.561Z,102299.72
2022-10-18T11:20:10.134Z,102294.69
2022-10-18T11:22:50.049Z,102292.22
2022-10-18T11:25:18.024Z,102279.69
2022-10-18T11:27:50.254Z,102283.88
2022-10-18T11:30:49.238Z,102285.09
2022-10-18T11:33:44.067Z,102283.63
2022-10-18T11:36:27.083Z,102278.47
2022-10-18T11:39:00.473Z,102283.88
2022-10-18T11:41:41.111Z,102277.56
2022-10-18T11:44:33.098Z,102275.50
2022-10-18T11:47:21.105Z,102280.06
2022-10-18T11:50:12.522Z,102282.94
2022-10-18T11:53:11.643Z,102277.09
2022-10-18T11:55:47.771Z,102270.84
2022-10-18T11:58:26.709Z,102272.97
2022-10-18T12:01:07.699Z,102272.97
2022-10-18T12:03:40.221Z,102267.81
2022-10-18T12:06:15.811Z,102271.34
2022-10-18T12:08:45.238Z,102279.16
2022-10-18T12:11:19.114Z,102277.31
2022-10-18T12:13:52.562Z,102273.34
2022-10-18T12:16:45.569Z,102278.06
2022-10-18T12:19:35.955Z,102269.19
2022-10-18T12:22:23.181Z,102268.53
2022-10-18T12:24:49.995Z,102262.66
2022-10-18T12:27:17.458Z,102265.63
2022-10-18T12:30:13.158Z,102262.97
2022-10-18T12:32:44.705Z,102262.28
2022-10-18T12:35:20.400Z,102262.28
2022-10-18T12:37:49.913Z,102261.72
2022-10-18T12:40:44.432Z,102260.19
2022-10-18T12:43:24.707Z,102265.03
2022-10-18T12:45:58.036Z,102265.94
2022-10-18T12:48:39.131Z,102259.03
2022-10-18T12:51:07.625Z,102275.25
2022-10-18T12:53:35.340Z,102272.53
2022-10-18T12:56:44.199Z,102262.06
2022-10-18T12:59:14.103Z,102273.16
2022-10-18T13:02:07.838Z,102260.44
2022-10-18T13:04:35.431Z,102263.06
2022-10-18T13:07:05.224Z,102255.72
2022-10-18T13:09:36.002Z,102256.69
2022-10-18T13:12:11.436Z,102257.41
2022-10-18T13:14:48.399Z,102247.34
2022-10-18T13:17:38.571Z,102256.53
2022-10-18T13:20:26.651Z,102257.19
2022-10-18T13:22:53.774Z,102260.38
2022-10-18T13:25:29.431Z,102263.19
2022-10-18T13:28:05.480Z,102266.50
2022-10-18T13:30:59.739Z,102251.34
2022-10-18T13:33:41.890Z,102251.53
2022-10-18T13:36:22.713Z,102267.91
2022-10-18T13:38:57.746Z,102260.91
2022-10-18T13:41:29.251Z,102256.34
2022-10-18T13:44:37.495Z,102266.16
2022-10-18T13:47:04.498Z,102267.81
2022-10-18T13:49:40.012Z,102275.41
2022-10-18T13:52:21.871Z,102270.41
2022-10-18T13:55:07.091Z,102269.00
2022-10-18T13:57:45.628Z,102268.44
2022-10-18T14:00:48.349Z,102263.47
2022-10-18T14:03:56.975Z,102262.78
2022-10-18T14:06:29.026Z,102268.19
2022-10-18T14:12:21.647Z,102274.75
2022-10-18T14:14:58.090Z,102272.75
2022-10-18T14:17:34.072Z,102279.59
2022-10-18T14:20:29.317Z,102276.00
2022-10-18T14:23:20.375Z,102266.88
2022-10-18T14:25:47.999Z,102281.97
2022-10-18T14:28:31.474Z,102278.44
2022-10-18T14:31:12.124Z,102276.13
2022-10-18T14:33:57.094Z,102283.94
2022-10-18T14:36:37.073Z,102275.84
2022-10-18T14:39:06.282Z,102269.84
2022-10-18T14:41:35.703Z,102284.09
2022-10-18T14:44:14.638Z,102286.53
2022-10-18T14:46:45.027Z,102285.38
2022-10-18T14:49:13.752Z,102293.03
2022-10-18T14:51:43.223Z,102285.13
2022-10-18T14:54:16.380Z,102294.41
2022-10-18T14:56:44.557Z,102282.91
2022-10-18T15:00:02.085Z,102294.75
2022-10-18T15:02:35.872Z,102295.91
2022-10-18T15:05:24.859Z,102298.41
2022-10-18T15:07:52.569Z,102306.41
2022-10-18T15:10:32.991Z,102303.09
2022-10-18T15:13:11.333Z,102303.53
2022-10-18T15:15:38.818Z,102297.03
2022-10-18T15:18:06.711Z,102300.38
2022-10-18T15:20:39.468Z,102302.06
2022-10-18T15:23:31.536Z,102303.81
2022-10-18T15:26:07.993Z,102301.31
2022-10-18T15:28:40.183Z,102298.94
2022-10-18T15:31:16.851Z,102304.34
2022-10-18T15:33:44.605Z,102297.19
2022-10-18T15:36:21.794Z,102302.09
2022-10-18T15:38:50.047Z,102307.69
2022-10-18T15:41:36.702Z,102309.22
2022-10-18T15:44:22.864Z,102306.50
2022-10-18T15:46:53.118Z,102309.44
2022-10-18T15:49:44.269Z,102307.38
2022-10-18T15:52:38.104Z,102309.16
2022-10-18T15:55:30.038Z,102314.50
2022-10-18T15:58:04.933Z,102311.38
2022-10-18T16:00:31.703Z,102309.13
2022-10-18T16:02:58.345Z,102319.41
2022-10-18T16:05:25.817Z,102316.88
2022-10-18T16:07:52.859Z,102314.00
2022-10-18T16:10:19.501Z,102319.28
2022-10-18T16:12:46.477Z,102317.81
2022-10-18T16:15:13.304Z,102310.72
2022-10-18T16:17:40.229Z,102307.97
2022-10-18T16:20:07.586Z,102308.16
2022-10-18T16:22:36.304Z,102309.47
2022-10-18T16:25:03.985Z,102307.00
2022-10-18T16:27:30.647Z,102309.53
2022-10-18T16:29:57.335Z,102318.34
2022-10-18T16:32:23.911Z,102318.97
2022-10-18T16:34:50.606Z,102324.53
2022-10-18T16:37:17.657Z,102320.13
2022-10-18T16:39:44.268Z,102319.34
2022-10-18T16:42:10.859Z,102317.50
2022-10-18T16:44:37.517Z,102319.72
2022-10-18T16:47:04.107Z,102318.44
2022-10-18T16:49:31.997Z,102327.72
2022-10-18T16:51:59.829Z,102344.13
2022-10-18T16:54:26.495Z,102339.97
2022-10-18T16:56:53.160Z,102340.59
2022-10-18T16:59:31.496Z,102344.56
2022-10-18T17:01:58.261Z,102345.81
2022-10-18T17:04:24.978Z,102351.06
2022-10-18T17:06:54.752Z,102357.88
2022-10-18T17:09:21.448Z,102359.00
2022-10-18T17:11:48.158Z,102364.38
2022-10-18T17:14:14.907Z,102378.50
2022-10-18T17:16:44.454Z,102372.53
2022-10-18T17:19:14.898Z,102369.97
2022-10-18T17:21:41.513Z,102377.28
2022-10-18T17:24:08.167Z,102378.81
2022-10-18T17:26:35.070Z,102365.56
2022-10-18T17:29:04.751Z,102379.09
2022-10-18T17:31:32.619Z,102380.09
2022-10-18T17:34:02.067Z,102380.88
2022-10-18T17:36:30.225Z,102392.16
2022-10-18T17:38:56.914Z,102394.53
2022-10-18T17:41:23.798Z,102394.75
2022-10-18T17:43:50.487Z,102396.28
2022-10-18T17:46:18.142Z,102390.91
2022-10-18T17:48:45.674Z,102397.44
2022-10-18T17:51:15.946Z,102402.34
2022-10-18T17:53:42.909Z,102407.13
2022-10-18T17:56:10.898Z,102408.75
2022-10-18T17:58:37.588Z,102413.63
2022-10-18T18:01:15.951Z,102421.47
2022-10-18T18:03:42.970Z,102425.63
2022-10-18T18:06:34.102Z,102427.97
2022-10-18T18:09:10.645Z,102420.84
2022-10-18T18:11:38.839Z,102424.53
2022-10-18T18:14:09.771Z,102434.16
2022-10-18T18:16:38.978Z,102427.59
2022-10-18T18:19:09.631Z,102437.97
2022-10-18T18:21:37.470Z,102437.69
2022-10-18T18:24:04.779Z,102430.88
2022-10-18T18:26:33.147Z,102435.50
2022-10-18T18:29:00.387Z,102429.78
2022-10-18T18:31:30.745Z,102436.00
2022-10-18T18:34:01.159Z,102428.50
2022-10-18T18:36:32.593Z,102439.06
2022-10-18T18:38:59.451Z,102443.56
2022-10-18T18:41:27.702Z,102445.50
2022-10-18T18:44:04.301Z,102446.03
2022-10-18T18:46:36.655Z,102445.09
2022-10-18T18:49:04.143Z,102447.63
2022-10-18T18:51:32.487Z,102454.19
2022-10-18T18:53:59.766Z,102447.03
2022-10-18T18:56:29.120Z,102457.94
2022-10-18T18:58:56.962Z,102459.16
2022-10-18T19:01:30.347Z,102459.28
2022-10-18T19:03:58.877Z,102457.59
2022-10-18T19:06:28.568Z,102464.25
2022-10-18T19:09:04.079Z,102457.72
2022-10-18T19:11:38.914Z,102449.59
2022-10-18T19:14:07.923Z,102454.28
2022-10-18T19:16:39.074Z,102459.38
2022-10-18T19:19:14.588Z,102461.34
2022-10-18T19:21:53.238Z,102460.13
2022-10-18T19:24:21.646Z,102459.38
2022-10-18T19:27:00.881Z,102443.59
2022-10-18T19:29:36.190Z,102453.03
2022-10-18T19:32:07.395Z,102468.66
2022-10-18T19:34:37.197Z,102469.97
2022-10-18T19:37:04.429Z,102473.44
2022-10-18T19:39:33.137Z,102469.44
2022-10-18T19:42:03.390Z,102464.59
2022-10-18T19:44:32.446Z,102466.47
2022-10-18T19:46:59.709Z,102479.59
2022-10-18T19:49:26.558Z,102469.06
2022-10-18T19:51:53.220Z,102471.06
2022-10-18T19:54:20.113Z,102457.50
2022-10-18T19:56:47.182Z,102466.47
2022-10-18T19:59:15.580Z,102472.13
2022-10-18T20:01:42.966Z,102460.13
2022-10-18T20:04:11.467Z,102463.22
2022-10-18T20:06:38.901Z,102462.72
2022-10-18T20:09:07.192Z,102467.06
2022-10-18T20:11:35.011Z,102464.59
2022-10-18T20:14:01.956Z,102471.41
2022-10-18T20:16:30.923Z,102478.34
2022-10-18T20:19:00.355Z,102485.81
2022-10-18T20:21:28.872Z,102490.53
2022-10-18T20:23:56.260Z,102495.97
2022-10-18T20:26:25.501Z,102488.38
2022-10-18T20:28:57.014Z,102488.16
2022-10-18T20:31:29.346Z,102484.59
2022-10-18T20:34:01.660Z,102489.69
2022-10-18T20:36:30.331Z,102496.31
2022-10-18T20:38:57.285Z,102495.03
2022-10-18T20:41:30.446Z,102495.88
2022-10-18T20:44:02.716Z,102506.09
2022-10-18T20:46:35.196Z,102501.13
2022-10-18T20:49:02.751Z,102504.75
2022-10-18T20:51:33.808Z,102497.94
2022-10-18T20:54:01.840Z,102499.00
2022-10-18T20:56:28.541Z,102509.53
2022-10-18T20:58:56.825Z,102500.81
2022-10-18T21:01:24.618Z,102506.88
2022-10-18T21:03:53.011Z,102502.72
2022-10-18T21:06:23.489Z,102503.16
2022-10-18T21:09:01.511Z,102498.06
2022-10-18T21:11:29.778Z,102504.69
2022-10-18T21:14:00.231Z,102515.56
2022-10-18T21:16:27.392Z,102504.63
2022-10-18T21:18:54.894Z,102509.66
2022-10-18T21:21:24.405Z,102516.13
2022-10-18T21:23:52.347Z,102514.44
2022-10-18T21:26:27.496Z,102522.31
2022-10-18T21:28:57.861Z,102518.25
2022-10-18T21:31:27.040Z,102510.81
2022-10-18T21:33:59.748Z,102518.44
2022-10-18T21:36:28.151Z,102512.50
2022-10-18T21:38:54.845Z,102511.53
2022-10-18T21:41:22.600Z,102503.25
2022-10-18T21:43:54.252Z,102491.16
2022-10-18T21:46:22.601Z,102488.56
2022-10-18T21:48:52.063Z,102488.28
2022-10-18T21:51:20.110Z,102485.91
2022-10-18T21:53:49.700Z,102484.22
2022-10-18T21:56:21.829Z,102488.16
2022-10-18T21:58:48.859Z,102491.00
2022-10-18T22:01:18.766Z,102485.69
2022-10-18T22:03:49.052Z,102486.09
2022-10-18T22:06:17.332Z,102490.00
2022-10-18T22:08:55.823Z,102490.97
2022-10-18T22:11:26.679Z,102485.75
2022-10-18T22:13:54.221Z,102483.09
2022-10-18T22:16:21.347Z,102475.88
2022-10-18T22:18:49.175Z,102476.94
2022-10-18T22:21:18.147Z,102474.81
2022-10-18T22:23:50.868Z,102471.59
2022-10-18T22:26:20.788Z,102468.31
2022-10-18T22:28:48.346Z,102481.13
2022-10-18T22:31:17.537Z,102472.22
2022-10-18T22:33:44.752Z,102474.13
2022-10-18T22:36:12.146Z,102471.97
2022-10-18T22:38:39.609Z,102460.41
2022-10-18T22:41:07.613Z,102461.75
2022-10-18T22:43:35.158Z,102461.31
2022-10-18T22:46:10.898Z,102467.78
2022-10-18T22:48:37.856Z,102467.03
2022-10-18T22:51:05.163Z,102474.88
2022-10-18T22:53:33.060Z,102477.66
2022-10-18T22:55:59.854Z,102475.16
2022-10-18T22:58:27.023Z,102477.44
2022-10-18T23:01:01.880Z,102459.72
2022-10-18T23:03:28.586Z,102457.16
2022-10-18T23:05:55.444Z,102450.81
2022-10-18T23:08:22.520Z,102451.13
2022-10-18T23:10:54.563Z,102450.94
2022-10-18T23:13:22.654Z,102454.84
2022-10-18T23:15:49.985Z,102454.19
2022-10-18T23:18:20.126Z,102459.72
2022-10-18T23:20:46.848Z,102458.00
2022-10-18T23:23:16.966Z,102455.81
2022-10-18T23:25:43.577Z,102461.22
2022-10-18T23:28:10.250Z,102464.28
2022-10-18T23:30:37.977Z,102463.03
2022-10-18T23:33:04.649Z,102454.03
2022-10-18T23:35:31.363Z,102451.56
2022-10-18T23:37:57.979Z,102455.38
2022-10-18T23:40:24.703Z,102450.28
2022-10-18T23:42:51.359Z,102454.72
2022-10-18T23:45:18.115Z,102451.53
2022-10-18T23:47:44.730Z,102466.75
2022-10-18T23:50:11.498Z,102456.31
2022-10-18T23:52:38.191Z,102467.69
2022-10-18T23:55:05.307Z,102472.03
2022-10-18T23:57:32.229Z,102467.69
